sensor_id;sensor_type;location;lat;lon;timestamp;temperature;humidity
30764;DHT22;17497;51.476;7.770;2022-12-07T00:01:14;3.80;99.90
30764;DHT22;17497;51.476;7.770;2022-12-07T00:03:43;3.80;99.90
30764;DHT22;17497;51.476;7.770;2022-12-07T00:06:16;3.80;99.90
30764;DHT22;17497;51.476;7.770;2022-12-07T00:08:44;3.80;99.90
30764;DHT22;17497;51.476;7.770;2022-12-07T00:11:19;3.90;99.90
30764;DHT22;17497;51.476;7.770;2022-12-07T00:14:10;3.90;99.90
30764;DHT22;17497;51.476;7.770;2022-12-07T00:17:00;3.90;99.90
30764;DHT22;17497;51.476;7.770;2022-12-07T00:19:27;3.90;99.90
30764;DHT22;17497;51.476;7.770;2022-12-07T00:21:54;3.90;99.90
30764;DHT22;17497;51.476;7.770;2022-12-07T00:24:20;3.90;99.90
30764;DHT22;17497;51.476;7.770;2022-12-07T00:26:47;3.90;99.90
30764;DHT22;17497;51.476;7.770;2022-12-07T00:29:21;4.00;99.90
30764;DHT22;17497;51.476;7.770;2022-12-07T00:31:50;4.00;99.90
30764;DHT22;17497;51.476;7.770;2022-12-07T00:34:21;4.00;99.90
30764;DHT22;17497;51.476;7.770;2022-12-07T00:36:48;4.00;99.90
30764;DHT22;17497;51.476;7.770;2022-12-07T00:39:15;4.00;99.90
30764;DHT22;17497;51.476;7.770;2022-12-07T00:41:42;4.00;99.90
30764;DHT22;17497;51.476;7.770;2022-12-07T00:44:09;4.00;99.90
30764;DHT22;17497;51.476;7.770;2022-12-07T00:46:36;4.00;99.90
30764;DHT22;17497;51.476;7.770;2022-12-07T00:49:03;4.00;99.90
30764;DHT22;17497;51.476;7.770;2022-12-07T00:51:29;4.00;99.90
30764;DHT22;17497;51.476;7.770;2022-12-07T00:53:56;4.00;99.90
30764;DHT22;17497;51.476;7.770;2022-12-07T00:56:25;4.00;99.90
30764;DHT22;17497;51.476;7.770;2022-12-07T00:58:57;4.00;99.90
30764;DHT22;17497;51.476;7.770;2022-12-07T01:01:26;4.00;99.90
30764;DHT22;17497;51.476;7.770;2022-12-07T01:03:53;4.00;99.90
30764;DHT22;17497;51.476;7.770;2022-12-07T01:06:21;4.00;99.90
30764;DHT22;17497;51.476;7.770;2022-12-07T01:08:48;4.10;99.90
30764;DHT22;17497;51.476;7.770;2022-12-07T01:11:17;4.00;99.90
30764;DHT22;17497;51.476;7.770;2022-12-07T01:13:45;4.00;99.90
30764;DHT22;17497;51.476;7.770;2022-12-07T01:16:14;4.10;99.90
30764;DHT22;17497;51.476;7.770;2022-12-07T01:18:42;4.10;99.90
30764;DHT22;17497;51.476;7.770;2022-12-07T01:21:14;4.10;99.90
30764;DHT22;17497;51.476;7.770;2022-12-07T01:23:42;4.10;99.90
30764;DHT22;17497;51.476;7.770;2022-12-07T01:26:14;4.10;99.90
30764;DHT22;17497;51.476;7.770;2022-12-07T01:28:41;4.10;99.90
30764;DHT22;17497;51.476;7.770;2022-12-07T01:31:11;4.10;99.90
30764;DHT22;17497;51.476;7.770;2022-12-07T01:33:42;4.10;99.90
30764;DHT22;17497;51.476;7.770;2022-12-07T01:36:28;4.10;99.90
30764;DHT22;17497;51.476;7.770;2022-12-07T01:39:01;4.10;99.90
30764;DHT22;17497;51.476;7.770;2022-12-07T01:41:31;4.10;99.90
30764;DHT22;17497;51.476;7.770;2022-12-07T01:46:54;4.20;99.90
30764;DHT22;17497;51.476;7.770;2022-12-07T01:49:29;4.10;99.90
30764;DHT22;17497;51.476;7.770;2022-12-07T01:54:46;4.10;99.90
30764;DHT22;17497;51.476;7.770;2022-12-07T01:57:15;4.20;99.90
30764;DHT22;17497;51.476;7.770;2022-12-07T01:59:44;4.20;99.90
30764;DHT22;17497;51.476;7.770;2022-12-07T02:02:20;4.20;99.90
30764;DHT22;17497;51.476;7.770;2022-12-07T02:04:49;4.20;99.90
30764;DHT22;17497;51.476;7.770;2022-12-07T02:07:17;4.20;99.90
30764;DHT22;17497;51.476;7.770;2022-12-07T02:09:44;4.20;99.90
30764;DHT22;17497;51.476;7.770;2022-12-07T02:12:11;4.20;99.90
30764;DHT22;17497;51.476;7.770;2022-12-07T02:14:38;4.20;99.90
30764;DHT22;17497;51.476;7.770;2022-12-07T02:20:15;4.20;99.90
30764;DHT22;17497;51.476;7.770;2022-12-07T02:23:07;4.20;99.90
30764;DHT22;17497;51.476;7.770;2022-12-07T02:25:54;4.20;99.90
30764;DHT22;17497;51.476;7.770;2022-12-07T02:28:37;4.20;99.90
30764;DHT22;17497;51.476;7.770;2022-12-07T02:31:14;4.20;99.90
30764;DHT22;17497;51.476;7.770;2022-12-07T02:33:54;4.20;99.90
30764;DHT22;17497;51.476;7.770;2022-12-07T02:36:30;4.20;99.90
30764;DHT22;17497;51.476;7.770;2022-12-07T02:39:08;4.20;99.90
30764;DHT22;17497;51.476;7.770;2022-12-07T02:41:42;4.20;99.90
30764;DHT22;17497;51.476;7.770;2022-12-07T02:44:14;4.20;99.90
30764;DHT22;17497;51.476;7.770;2022-12-07T02:46:48;4.20;99.90
30764;DHT22;17497;51.476;7.770;2022-12-07T02:49:17;4.20;99.90
30764;DHT22;17497;51.476;7.770;2022-12-07T02:51:46;4.20;99.90
30764;DHT22;17497;51.476;7.770;2022-12-07T02:54:14;4.10;99.90
30764;DHT22;17497;51.476;7.770;2022-12-07T03:11:07;4.20;99.90
30764;DHT22;17497;51.476;7.770;2022-12-07T03:16:04;4.20;99.90
30764;DHT22;17497;51.476;7.770;2022-12-07T03:18:36;4.20;99.90
30764;DHT22;17497;51.476;7.770;2022-12-07T03:21:08;4.20;99.90
30764;DHT22;17497;51.476;7.770;2022-12-07T03:23:38;4.20;99.90
30764;DHT22;17497;51.476;7.770;2022-12-07T03:26:09;4.20;99.90
30764;DHT22;17497;51.476;7.770;2022-12-07T03:28:42;4.10;99.90
30764;DHT22;17497;51.476;7.770;2022-12-07T03:31:23;4.10;99.90
30764;DHT22;17497;51.476;7.770;2022-12-07T03:33:59;4.10;99.90
30764;DHT22;17497;51.476;7.770;2022-12-07T03:41:51;4.00;99.90
30764;DHT22;17497;51.476;7.770;2022-12-07T03:44:20;4.00;99.90
30764;DHT22;17497;51.476;7.770;2022-12-07T03:47:03;4.00;99.90
30764;DHT22;17497;51.476;7.770;2022-12-07T03:52:31;3.90;99.90
30764;DHT22;17497;51.476;7.770;2022-12-07T03:57:41;3.90;99.90
30764;DHT22;17497;51.476;7.770;2022-12-07T04:00:10;3.90;99.90
30764;DHT22;17497;51.476;7.770;2022-12-07T04:02:37;3.90;99.90
30764;DHT22;17497;51.476;7.770;2022-12-07T04:05:05;3.90;99.90
30764;DHT22;17497;51.476;7.770;2022-12-07T04:07:32;3.90;99.90
30764;DHT22;17497;51.476;7.770;2022-12-07T04:09:59;3.90;99.90
30764;DHT22;17497;51.476;7.770;2022-12-07T04:12:26;3.90;99.90
30764;DHT22;17497;51.476;7.770;2022-12-07T04:14:53;3.90;99.90
30764;DHT22;17497;51.476;7.770;2022-12-07T04:17:20;3.90;99.90
30764;DHT22;17497;51.476;7.770;2022-12-07T04:19:46;3.90;99.90
30764;DHT22;17497;51.476;7.770;2022-12-07T04:22:13;3.80;99.90
30764;DHT22;17497;51.476;7.770;2022-12-07T04:24:40;3.80;99.90
30764;DHT22;17497;51.476;7.770;2022-12-07T04:27:06;3.80;99.90
30764;DHT22;17497;51.476;7.770;2022-12-07T04:29:33;3.80;99.90
30764;DHT22;17497;51.476;7.770;2022-12-07T04:32:00;3.70;99.90
30764;DHT22;17497;51.476;7.770;2022-12-07T04:34:26;3.70;99.90
30764;DHT22;17497;51.476;7.770;2022-12-07T04:36:53;3.70;99.90
30764;DHT22;17497;51.476;7.770;2022-12-07T04:39:28;3.70;99.90
30764;DHT22;17497;51.476;7.770;2022-12-07T04:41:56;3.70;99.90
30764;DHT22;17497;51.476;7.770;2022-12-07T04:44:23;3.70;99.90
30764;DHT22;17497;51.476;7.770;2022-12-07T04:46:50;3.70;99.90
30764;DHT22;17497;51.476;7.770;2022-12-07T04:49:18;3.70;99.90
30764;DHT22;17497;51.476;7.770;2022-12-07T04:51:46;3.70;99.90
30764;DHT22;17497;51.476;7.770;2022-12-07T04:54:14;3.70;99.90
30764;DHT22;17497;51.476;7.770;2022-12-07T04:56:43;3.70;99.90
30764;DHT22;17497;51.476;7.770;2022-12-07T04:59:14;3.60;99.90
30764;DHT22;17497;51.476;7.770;2022-12-07T05:01:42;3.60;99.90
30764;DHT22;17497;51.476;7.770;2022-12-07T05:04:09;3.60;99.90
30764;DHT22;17497;51.476;7.770;2022-12-07T05:06:36;3.60;99.90
30764;DHT22;17497;51.476;7.770;2022-12-07T05:09:03;3.60;99.90
30764;DHT22;17497;51.476;7.770;2022-12-07T05:11:30;3.60;99.90
30764;DHT22;17497;51.476;7.770;2022-12-07T05:16:32;3.60;99.90
30764;DHT22;17497;51.476;7.770;2022-12-07T05:18:59;3.60;99.90
30764;DHT22;17497;51.476;7.770;2022-12-07T05:21:26;3.60;99.90
30764;DHT22;17497;51.476;7.770;2022-12-07T05:23:53;3.60;99.90
30764;DHT22;17497;51.476;7.770;2022-12-07T05:26:19;3.60;99.90
30764;DHT22;17497;51.476;7.770;2022-12-07T05:28:50;3.60;99.90
30764;DHT22;17497;51.476;7.770;2022-12-07T05:31:18;3.60;99.90
30764;DHT22;17497;51.476;7.770;2022-12-07T05:33:45;3.60;99.90
30764;DHT22;17497;51.476;7.770;2022-12-07T05:36:12;3.60;99.90
30764;DHT22;17497;51.476;7.770;2022-12-07T05:38:38;3.60;99.90
30764;DHT22;17497;51.476;7.770;2022-12-07T05:41:06;3.60;99.90
30764;DHT22;17497;51.476;7.770;2022-12-07T05:43:33;3.50;99.90
30764;DHT22;17497;51.476;7.770;2022-12-07T05:46:00;3.50;99.90
30764;DHT22;17497;51.476;7.770;2022-12-07T05:48:27;3.60;99.90
30764;DHT22;17497;51.476;7.770;2022-12-07T05:50:54;3.50;99.90
30764;DHT22;17497;51.476;7.770;2022-12-07T05:53:20;3.50;99.90
30764;DHT22;17497;51.476;7.770;2022-12-07T05:55:49;3.50;99.90
30764;DHT22;17497;51.476;7.770;2022-12-07T05:58:15;3.50;99.90
30764;DHT22;17497;51.476;7.770;2022-12-07T06:01:01;3.50;99.90
30764;DHT22;17497;51.476;7.770;2022-12-07T06:03:27;3.50;99.90
30764;DHT22;17497;51.476;7.770;2022-12-07T06:05:54;3.50;99.90
30764;DHT22;17497;51.476;7.770;2022-12-07T06:08:21;3.40;99.90
30764;DHT22;17497;51.476;7.770;2022-12-07T06:10:51;3.50;99.90
30764;DHT22;17497;51.476;7.770;2022-12-07T06:13:38;3.50;99.90
30764;DHT22;17497;51.476;7.770;2022-12-07T06:16:12;3.40;99.90
30764;DHT22;17497;51.476;7.770;2022-12-07T06:18:39;3.50;99.90
30764;DHT22;17497;51.476;7.770;2022-12-07T06:21:06;3.50;99.90
30764;DHT22;17497;51.476;7.770;2022-12-07T06:23:32;3.50;99.90
30764;DHT22;17497;51.476;7.770;2022-12-07T06:25:59;3.50;99.90
30764;DHT22;17497;51.476;7.770;2022-12-07T06:28:26;3.50;99.90
30764;DHT22;17497;51.476;7.770;2022-12-07T06:31:02;3.50;99.90
30764;DHT22;17497;51.476;7.770;2022-12-07T06:33:30;3.50;99.90
30764;DHT22;17497;51.476;7.770;2022-12-07T06:35:57;3.50;99.90
30764;DHT22;17497;51.476;7.770;2022-12-07T06:38:23;3.40;99.90
30764;DHT22;17497;51.476;7.770;2022-12-07T06:40:51;3.30;99.90
30764;DHT22;17497;51.476;7.770;2022-12-07T06:43:17;3.30;99.90
30764;DHT22;17497;51.476;7.770;2022-12-07T06:45:44;3.30;99.90
30764;DHT22;17497;51.476;7.770;2022-12-07T06:48:11;3.30;99.90
30764;DHT22;17497;51.476;7.770;2022-12-07T06:50:38;3.40;99.90
30764;DHT22;17497;51.476;7.770;2022-12-07T06:53:04;3.40;99.90
30764;DHT22;17497;51.476;7.770;2022-12-07T06:55:31;3.40;99.90
30764;DHT22;17497;51.476;7.770;2022-12-07T06:57:58;3.40;99.90
30764;DHT22;17497;51.476;7.770;2022-12-07T07:00:25;3.40;99.90
30764;DHT22;17497;51.476;7.770;2022-12-07T07:02:51;3.40;99.90
30764;DHT22;17497;51.476;7.770;2022-12-07T07:05:18;3.50;99.90
30764;DHT22;17497;51.476;7.770;2022-12-07T07:07:45;3.40;99.90
30764;DHT22;17497;51.476;7.770;2022-12-07T07:10:31;3.40;99.90
30764;DHT22;17497;51.476;7.770;2022-12-07T07:12:58;3.50;99.90
30764;DHT22;17497;51.476;7.770;2022-12-07T07:15:25;3.50;99.90
30764;DHT22;17497;51.476;7.770;2022-12-07T07:17:51;3.40;99.90
30764;DHT22;17497;51.476;7.770;2022-12-07T07:20:18;3.40;99.90
30764;DHT22;17497;51.476;7.770;2022-12-07T07:22:45;3.40;99.90
30764;DHT22;17497;51.476;7.770;2022-12-07T07:25:12;3.40;99.90
30764;DHT22;17497;51.476;7.770;2022-12-07T07:27:39;3.40;99.90
30764;DHT22;17497;51.476;7.770;2022-12-07T07:30:06;3.40;99.90
30764;DHT22;17497;51.476;7.770;2022-12-07T07:32:33;3.40;99.90
30764;DHT22;17497;51.476;7.770;2022-12-07T07:35:00;3.40;99.90
30764;DHT22;17497;51.476;7.770;2022-12-07T07:37:27;3.40;99.90
30764;DHT22;17497;51.476;7.770;2022-12-07T07:39:54;3.40;99.90
30764;DHT22;17497;51.476;7.770;2022-12-07T07:42:20;3.40;99.90
30764;DHT22;17497;51.476;7.770;2022-12-07T07:44:47;3.40;99.90
30764;DHT22;17497;51.476;7.770;2022-12-07T07:47:14;3.30;99.90
30764;DHT22;17497;51.476;7.770;2022-12-07T07:49:41;3.40;99.90
30764;DHT22;17497;51.476;7.770;2022-12-07T07:52:13;3.40;99.90
30764;DHT22;17497;51.476;7.770;2022-12-07T07:54:40;3.50;99.90
30764;DHT22;17497;51.476;7.770;2022-12-07T07:57:07;3.40;99.90
30764;DHT22;17497;51.476;7.770;2022-12-07T07:59:33;3.30;99.90
30764;DHT22;17497;51.476;7.770;2022-12-07T08:02:00;3.30;99.90
30764;DHT22;17497;51.476;7.770;2022-12-07T08:04:27;3.30;99.90
30764;DHT22;17497;51.476;7.770;2022-12-07T08:06:54;3.30;99.90
30764;DHT22;17497;51.476;7.770;2022-12-07T08:09:20;3.30;99.90
30764;DHT22;17497;51.476;7.770;2022-12-07T08:11:47;3.30;99.90
30764;DHT22;17497;51.476;7.770;2022-12-07T08:14:14;3.30;99.90
30764;DHT22;17497;51.476;7.770;2022-12-07T08:16:40;3.30;99.90
30764;DHT22;17497;51.476;7.770;2022-12-07T08:19:07;3.40;99.90
30764;DHT22;17497;51.476;7.770;2022-12-07T08:21:34;3.40;99.90
30764;DHT22;17497;51.476;7.770;2022-12-07T08:24:00;3.40;99.90
30764;DHT22;17497;51.476;7.770;2022-12-07T08:26:27;3.50;99.90
30764;DHT22;17497;51.476;7.770;2022-12-07T08:28:57;3.50;99.90
30764;DHT22;17497;51.476;7.770;2022-12-07T08:31:23;3.60;99.90
30764;DHT22;17497;51.476;7.770;2022-12-07T08:33:50;3.60;99.90
30764;DHT22;17497;51.476;7.770;2022-12-07T08:36:17;3.60;99.90
30764;DHT22;17497;51.476;7.770;2022-12-07T08:38:44;3.50;99.90
30764;DHT22;17497;51.476;7.770;2022-12-07T08:41:31;3.40;99.90
30764;DHT22;17497;51.476;7.770;2022-12-07T08:43:59;3.40;99.90
30764;DHT22;17497;51.476;7.770;2022-12-07T08:46:38;3.50;99.90
30764;DHT22;17497;51.476;7.770;2022-12-07T08:49:18;3.50;99.90
30764;DHT22;17497;51.476;7.770;2022-12-07T08:51:45;3.50;99.90
30764;DHT22;17497;51.476;7.770;2022-12-07T08:54:15;3.40;99.90
30764;DHT22;17497;51.476;7.770;2022-12-07T08:56:44;3.30;99.90
30764;DHT22;17497;51.476;7.770;2022-12-07T08:59:13;3.40;99.90
30764;DHT22;17497;51.476;7.770;2022-12-07T09:01:40;3.40;99.90
30764;DHT22;17497;51.476;7.770;2022-12-07T09:04:07;3.60;99.90
30764;DHT22;17497;51.476;7.770;2022-12-07T09:06:34;3.70;99.90
30764;DHT22;17497;51.476;7.770;2022-12-07T09:09:02;3.70;99.90
30764;DHT22;17497;51.476;7.770;2022-12-07T09:11:29;3.80;99.90
30764;DHT22;17497;51.476;7.770;2022-12-07T09:13:56;3.80;99.90
30764;DHT22;17497;51.476;7.770;2022-12-07T09:16:22;3.80;99.90
30764;DHT22;17497;51.476;7.770;2022-12-07T09:18:49;3.70;99.90
30764;DHT22;17497;51.476;7.770;2022-12-07T09:21:16;3.70;99.90
30764;DHT22;17497;51.476;7.770;2022-12-07T09:23:43;3.80;99.90
30764;DHT22;17497;51.476;7.770;2022-12-07T09:26:10;3.80;99.90
30764;DHT22;17497;51.476;7.770;2022-12-07T09:28:37;3.80;99.90
30764;DHT22;17497;51.476;7.770;2022-12-07T09:31:04;3.80;99.90
30764;DHT22;17497;51.476;7.770;2022-12-07T09:33:59;3.80;99.90
30764;DHT22;17497;51.476;7.770;2022-12-07T09:36:27;3.80;99.90
30764;DHT22;17497;51.476;7.770;2022-12-07T09:38:55;3.80;99.90
30764;DHT22;17497;51.476;7.770;2022-12-07T09:41:23;3.80;99.90
30764;DHT22;17497;51.476;7.770;2022-12-07T09:43:51;3.80;99.90
30764;DHT22;17497;51.476;7.770;2022-12-07T09:46:19;3.80;99.90
30764;DHT22;17497;51.476;7.770;2022-12-07T09:48:47;3.90;99.90
30764;DHT22;17497;51.476;7.770;2022-12-07T09:51:35;4.00;99.90
30764;DHT22;17497;51.476;7.770;2022-12-07T09:54:05;4.10;99.90
30764;DHT22;17497;51.476;7.770;2022-12-07T09:56:32;4.20;99.90
30764;DHT22;17497;51.476;7.770;2022-12-07T09:59:01;4.20;99.90
30764;DHT22;17497;51.476;7.770;2022-12-07T10:01:30;4.30;99.90
30764;DHT22;17497;51.476;7.770;2022-12-07T10:04:22;4.30;99.90
30764;DHT22;17497;51.476;7.770;2022-12-07T10:06:50;4.30;99.90
30764;DHT22;17497;51.476;7.770;2022-12-07T10:09:22;4.30;99.90
30764;DHT22;17497;51.476;7.770;2022-12-07T10:12:18;4.30;99.90
30764;DHT22;17497;51.476;7.770;2022-12-07T10:15:11;4.20;99.90
30764;DHT22;17497;51.476;7.770;2022-12-07T10:17:48;4.30;99.90
30764;DHT22;17497;51.476;7.770;2022-12-07T10:20:24;4.20;99.90
30764;DHT22;17497;51.476;7.770;2022-12-07T10:23:04;4.20;99.90
30764;DHT22;17497;51.476;7.770;2022-12-07T10:25:36;4.20;99.90
30764;DHT22;17497;51.476;7.770;2022-12-07T10:28:15;4.20;99.90
30764;DHT22;17497;51.476;7.770;2022-12-07T10:33:49;4.20;99.90
30764;DHT22;17497;51.476;7.770;2022-12-07T10:38:58;4.30;99.90
30764;DHT22;17497;51.476;7.770;2022-12-07T10:41:26;4.40;99.90
30764;DHT22;17497;51.476;7.770;2022-12-07T10:43:55;4.40;99.90
30764;DHT22;17497;51.476;7.770;2022-12-07T10:51:59;4.40;99.90
30764;DHT22;17497;51.476;7.770;2022-12-07T10:54:52;4.50;99.90
30764;DHT22;17497;51.476;7.770;2022-12-07T11:00:23;4.70;99.90
30764;DHT22;17497;51.476;7.770;2022-12-07T11:03:00;4.80;99.90
30764;DHT22;17497;51.476;7.770;2022-12-07T11:05:52;4.90;99.90
30764;DHT22;17497;51.476;7.770;2022-12-07T11:22:09;5.10;99.90
30764;DHT22;17497;51.476;7.770;2022-12-07T11:27:40;5.20;99.90
30764;DHT22;17497;51.476;7.770;2022-12-07T11:30:23;5.10;99.90
30764;DHT22;17497;51.476;7.770;2022-12-07T11:33:10;5.10;99.90
30764;DHT22;17497;51.476;7.770;2022-12-07T11:38:15;5.00;99.90
30764;DHT22;17497;51.476;7.770;2022-12-07T11:40:50;4.90;99.90
30764;DHT22;17497;51.476;7.770;2022-12-07T11:43:27;5.00;99.90
30764;DHT22;17497;51.476;7.770;2022-12-07T11:46:04;5.00;99.90
30764;DHT22;17497;51.476;7.770;2022-12-07T11:48:37;5.00;99.90
30764;DHT22;17497;51.476;7.770;2022-12-07T11:51:07;4.90;99.90
30764;DHT22;17497;51.476;7.770;2022-12-07T11:53:41;4.90;99.90
30764;DHT22;17497;51.476;7.770;2022-12-07T11:56:12;4.90;99.90
30764;DHT22;17497;51.476;7.770;2022-12-07T12:06:40;5.00;99.90
30764;DHT22;17497;51.476;7.770;2022-12-07T12:09:25;5.00;99.90
30764;DHT22;17497;51.476;7.770;2022-12-07T12:15:47;5.00;99.90
30764;DHT22;17497;51.476;7.770;2022-12-07T12:21:25;5.00;99.90
30764;DHT22;17497;51.476;7.770;2022-12-07T12:24:00;4.90;99.90
30764;DHT22;17497;51.476;7.770;2022-12-07T12:26:32;4.90;99.90
30764;DHT22;17497;51.476;7.770;2022-12-07T12:29:19;4.90;99.90
30764;DHT22;17497;51.476;7.770;2022-12-07T12:31:48;4.80;99.90
30764;DHT22;17497;51.476;7.770;2022-12-07T12:34:59;4.90;99.90
30764;DHT22;17497;51.476;7.770;2022-12-07T12:42:50;4.90;99.90
30764;DHT22;17497;51.476;7.770;2022-12-07T12:45:25;4.80;99.90
30764;DHT22;17497;51.476;7.770;2022-12-07T12:48:07;4.80;99.90
30764;DHT22;17497;51.476;7.770;2022-12-07T12:54:14;4.80;99.90
30764;DHT22;17497;51.476;7.770;2022-12-07T12:57:06;4.80;99.90
30764;DHT22;17497;51.476;7.770;2022-12-07T13:05:01;5.00;99.90
30764;DHT22;17497;51.476;7.770;2022-12-07T13:15:50;5.40;99.90
30764;DHT22;17497;51.476;7.770;2022-12-07T13:23:58;5.40;99.90
30764;DHT22;17497;51.476;7.770;2022-12-07T13:26:42;5.30;99.90
30764;DHT22;17497;51.476;7.770;2022-12-07T13:31:44;5.20;99.90
30764;DHT22;17497;51.476;7.770;2022-12-07T13:34:40;5.30;99.90
30764;DHT22;17497;51.476;7.770;2022-12-07T13:37:24;5.30;99.90
30764;DHT22;17497;51.476;7.770;2022-12-07T13:40:01;5.30;99.90
30764;DHT22;17497;51.476;7.770;2022-12-07T13:42:38;5.30;99.90
30764;DHT22;17497;51.476;7.770;2022-12-07T13:45:31;5.40;99.90
30764;DHT22;17497;51.476;7.770;2022-12-07T13:48:31;5.30;99.90
30764;DHT22;17497;51.476;7.770;2022-12-07T13:51:02;5.20;99.90
30764;DHT22;17497;51.476;7.770;2022-12-07T13:53:29;5.10;99.90
30764;DHT22;17497;51.476;7.770;2022-12-07T13:55:58;5.10;99.90
30764;DHT22;17497;51.476;7.770;2022-12-07T13:58:27;5.10;99.90
30764;DHT22;17497;51.476;7.770;2022-12-07T14:00:56;5.00;99.90
30764;DHT22;17497;51.476;7.770;2022-12-07T14:03:31;5.00;99.90
30764;DHT22;17497;51.476;7.770;2022-12-07T14:06:18;5.00;99.90
30764;DHT22;17497;51.476;7.770;2022-12-07T14:08:46;5.00;99.90
30764;DHT22;17497;51.476;7.770;2022-12-07T14:11:16;5.00;99.90
30764;DHT22;17497;51.476;7.770;2022-12-07T14:14:02;5.00;99.90
30764;DHT22;17497;51.476;7.770;2022-12-07T14:16:35;4.90;99.90
30764;DHT22;17497;51.476;7.770;2022-12-07T14:19:05;4.90;99.90
30764;DHT22;17497;51.476;7.770;2022-12-07T14:21:33;4.90;99.90
30764;DHT22;17497;51.476;7.770;2022-12-07T14:26:39;4.90;99.90
30764;DHT22;17497;51.476;7.770;2022-12-07T14:31:49;4.90;99.90
30764;DHT22;17497;51.476;7.770;2022-12-07T14:34:15;4.90;99.90
30764;DHT22;17497;51.476;7.770;2022-12-07T14:36:42;4.90;99.90
30764;DHT22;17497;51.476;7.770;2022-12-07T14:39:09;4.90;99.90
30764;DHT22;17497;51.476;7.770;2022-12-07T14:41:39;4.90;99.90
30764;DHT22;17497;51.476;7.770;2022-12-07T14:44:22;4.90;99.90
30764;DHT22;17497;51.476;7.770;2022-12-07T14:46:57;4.90;99.90
30764;DHT22;17497;51.476;7.770;2022-12-07T14:49:44;4.90;99.90
30764;DHT22;17497;51.476;7.770;2022-12-07T14:52:23;4.90;99.90
30764;DHT22;17497;51.476;7.770;2022-12-07T14:55:23;4.80;99.90
30764;DHT22;17497;51.476;7.770;2022-12-07T14:57:51;4.80;99.90
30764;DHT22;17497;51.476;7.770;2022-12-07T15:00:19;4.70;99.90
30764;DHT22;17497;51.476;7.770;2022-12-07T15:02:47;4.70;99.90
30764;DHT22;17497;51.476;7.770;2022-12-07T15:05:15;4.60;99.90
30764;DHT22;17497;51.476;7.770;2022-12-07T15:07:43;4.50;99.90
30764;DHT22;17497;51.476;7.770;2022-12-07T15:10:20;4.50;99.90
30764;DHT22;17497;51.476;7.770;2022-12-07T15:12:50;4.50;99.90
30764;DHT22;17497;51.476;7.770;2022-12-07T15:15:16;4.40;99.90
30764;DHT22;17497;51.476;7.770;2022-12-07T15:17:43;4.40;99.90
30764;DHT22;17497;51.476;7.770;2022-12-07T15:20:14;4.30;99.90
30764;DHT22;17497;51.476;7.770;2022-12-07T15:22:43;4.20;99.90
30764;DHT22;17497;51.476;7.770;2022-12-07T15:25:13;4.20;99.90
30764;DHT22;17497;51.476;7.770;2022-12-07T15:27:40;4.20;99.90
30764;DHT22;17497;51.476;7.770;2022-12-07T15:30:07;4.10;99.90
30764;DHT22;17497;51.476;7.770;2022-12-07T15:32:34;4.10;99.90
30764;DHT22;17497;51.476;7.770;2022-12-07T15:35:00;4.00;99.90
30764;DHT22;17497;51.476;7.770;2022-12-07T15:37:28;3.90;99.90
30764;DHT22;17497;51.476;7.770;2022-12-07T15:39:54;4.00;99.90
30764;DHT22;17497;51.476;7.770;2022-12-07T15:42:21;3.90;99.90
30764;DHT22;17497;51.476;7.770;2022-12-07T15:44:48;3.80;99.90
30764;DHT22;17497;51.476;7.770;2022-12-07T15:47:38;3.70;99.90
30764;DHT22;17497;51.476;7.770;2022-12-07T15:50:25;3.60;99.90
30764;DHT22;17497;51.476;7.770;2022-12-07T15:52:52;3.60;99.90
30764;DHT22;17497;51.476;7.770;2022-12-07T15:55:19;3.50;99.90
30764;DHT22;17497;51.476;7.770;2022-12-07T15:57:45;3.40;99.90
30764;DHT22;17497;51.476;7.770;2022-12-07T16:00:13;3.30;99.90
30764;DHT22;17497;51.476;7.770;2022-12-07T16:02:40;3.30;99.90
30764;DHT22;17497;51.476;7.770;2022-12-07T16:05:07;3.20;99.90
30764;DHT22;17497;51.476;7.770;2022-12-07T16:07:33;3.10;99.90
30764;DHT22;17497;51.476;7.770;2022-12-07T16:10:00;3.10;99.90
30764;DHT22;17497;51.476;7.770;2022-12-07T16:12:27;3.20;99.90
30764;DHT22;17497;51.476;7.770;2022-12-07T16:14:53;3.10;99.90
30764;DHT22;17497;51.476;7.770;2022-12-07T16:17:20;3.20;99.90
30764;DHT22;17497;51.476;7.770;2022-12-07T16:19:47;3.30;99.90
30764;DHT22;17497;51.476;7.770;2022-12-07T16:22:13;3.30;99.90
30764;DHT22;17497;51.476;7.770;2022-12-07T16:24:40;3.30;99.90
30764;DHT22;17497;51.476;7.770;2022-12-07T16:27:07;3.30;99.90
30764;DHT22;17497;51.476;7.770;2022-12-07T16:29:33;3.40;99.90
30764;DHT22;17497;51.476;7.770;2022-12-07T16:32:00;3.40;99.90
30764;DHT22;17497;51.476;7.770;2022-12-07T16:34:27;3.40;99.90
30764;DHT22;17497;51.476;7.770;2022-12-07T16:36:53;3.30;99.90
30764;DHT22;17497;51.476;7.770;2022-12-07T16:39:30;3.40;99.90
30764;DHT22;17497;51.476;7.770;2022-12-07T16:41:57;3.40;99.90
30764;DHT22;17497;51.476;7.770;2022-12-07T16:44:24;3.40;99.90
30764;DHT22;17497;51.476;7.770;2022-12-07T16:46:51;3.40;99.90
30764;DHT22;17497;51.476;7.770;2022-12-07T16:49:18;3.30;99.90
30764;DHT22;17497;51.476;7.770;2022-12-07T16:51:45;3.30;99.90
30764;DHT22;17497;51.476;7.770;2022-12-07T16:54:36;3.30;99.90
30764;DHT22;17497;51.476;7.770;2022-12-07T16:57:02;3.40;99.90
30764;DHT22;17497;51.476;7.770;2022-12-07T16:59:29;3.40;99.90
30764;DHT22;17497;51.476;7.770;2022-12-07T17:01:56;3.40;99.90
30764;DHT22;17497;51.476;7.770;2022-12-07T17:04:22;3.30;99.90
30764;DHT22;17497;51.476;7.770;2022-12-07T17:06:49;3.30;99.90
30764;DHT22;17497;51.476;7.770;2022-12-07T17:09:16;3.30;99.90
30764;DHT22;17497;51.476;7.770;2022-12-07T17:11:47;3.30;99.90
30764;DHT22;17497;51.476;7.770;2022-12-07T17:14:14;3.30;99.90
30764;DHT22;17497;51.476;7.770;2022-12-07T17:16:59;3.40;99.90
30764;DHT22;17497;51.476;7.770;2022-12-07T17:19:29;3.40;99.90
30764;DHT22;17497;51.476;7.770;2022-12-07T17:21:55;3.40;99.90
30764;DHT22;17497;51.476;7.770;2022-12-07T17:24:22;3.40;99.90
30764;DHT22;17497;51.476;7.770;2022-12-07T17:26:49;3.30;99.90
30764;DHT22;17497;51.476;7.770;2022-12-07T17:29:17;3.30;99.90
30764;DHT22;17497;51.476;7.770;2022-12-07T17:31:46;3.30;99.90
30764;DHT22;17497;51.476;7.770;2022-12-07T17:34:18;3.30;99.90
30764;DHT22;17497;51.476;7.770;2022-12-07T17:36:45;3.30;99.90
30764;DHT22;17497;51.476;7.770;2022-12-07T17:39:15;3.40;99.90
30764;DHT22;17497;51.476;7.770;2022-12-07T17:41:42;3.40;99.90
30764;DHT22;17497;51.476;7.770;2022-12-07T17:44:28;3.30;99.90
30764;DHT22;17497;51.476;7.770;2022-12-07T17:46:55;3.30;99.90
30764;DHT22;17497;51.476;7.770;2022-12-07T17:49:27;3.40;99.90
30764;DHT22;17497;51.476;7.770;2022-12-07T17:51:55;3.40;99.90
30764;DHT22;17497;51.476;7.770;2022-12-07T17:54:40;3.40;99.90
30764;DHT22;17497;51.476;7.770;2022-12-07T17:57:08;3.40;99.90
30764;DHT22;17497;51.476;7.770;2022-12-07T17:59:35;3.50;99.90
30764;DHT22;17497;51.476;7.770;2022-12-07T18:02:03;3.40;99.90
30764;DHT22;17497;51.476;7.770;2022-12-07T18:04:30;3.50;99.90
30764;DHT22;17497;51.476;7.770;2022-12-07T18:06:56;3.50;99.90
30764;DHT22;17497;51.476;7.770;2022-12-07T18:09:23;3.50;99.90
30764;DHT22;17497;51.476;7.770;2022-12-07T18:11:50;3.50;99.90